createdAt,value
2019-02-14T00:00:11.779Z,20.93
2019-02-14T00:02:40.250Z,20.53
2019-02-14T00:05:16.135Z,20.17
2019-02-14T00:07:39.051Z,19.93
2019-02-14T00:10:10.487Z,21.53
2019-02-14T00:12:40.370Z,20.57
2019-02-14T00:15:13.645Z,21.47
2019-02-14T00:17:42.524Z,22.63
2019-02-14T00:20:11.494Z,22.20
2019-02-14T00:22:40.352Z,23.03
2019-02-14T00:25:10.410Z,22.97
2019-02-14T00:27:38.954Z,22.00
2019-02-14T00:30:09.337Z,21.17
2019-02-14T00:32:38.142Z,21.07
2019-02-14T00:35:07.058Z,22.93
2019-02-14T00:37:35.508Z,22.10
2019-02-14T00:40:06.727Z,22.70
2019-02-14T00:42:35.396Z,24.57
2019-02-14T00:45:06.910Z,21.67
2019-02-14T00:47:35.672Z,22.13
2019-02-14T00:50:05.729Z,22.17
2019-02-14T00:52:34.181Z,20.77
2019-02-14T00:55:03.015Z,20.80
2019-02-14T00:57:31.843Z,22.93
2019-02-14T01:00:00.614Z,21.03
2019-02-14T01:02:29.498Z,21.73
2019-02-14T01:05:00.356Z,22.17
2019-02-14T01:07:29.116Z,21.73
2019-02-14T01:09:57.929Z,21.20
2019-02-14T01:12:26.694Z,23.90
2019-02-14T01:14:55.518Z,24.80
2019-02-14T01:17:24.364Z,22.10
2019-02-14T01:19:53.154Z,23.77
2019-02-14T01:22:21.996Z,21.97
2019-02-14T01:24:50.778Z,22.87
2019-02-14T01:27:19.219Z,22.30
2019-02-14T01:29:47.699Z,20.77
2019-02-14T01:32:16.145Z,23.17
2019-02-14T01:34:44.978Z,22.50
2019-02-14T01:37:13.456Z,22.40
2019-02-14T01:39:42.348Z,22.23
2019-02-14T01:42:11.178Z,24.03
2019-02-14T01:44:41.142Z,24.57
2019-02-14T01:47:09.937Z,22.63
2019-02-14T01:49:38.864Z,22.43
2019-02-14T01:52:07.410Z,24.07
2019-02-14T01:54:36.203Z,22.87
2019-02-14T01:57:05.172Z,24.70
2019-02-14T01:59:33.920Z,24.27
2019-02-14T02:02:04.030Z,22.70
2019-02-14T02:04:32.548Z,22.53
2019-02-14T02:07:01.298Z,21.80
2019-02-14T02:09:30.090Z,23.13
2019-02-14T02:11:58.912Z,23.63
2019-02-14T02:14:27.358Z,23.30
2019-02-14T02:16:56.092Z,22.27
2019-02-14T02:19:24.577Z,23.50
2019-02-14T02:21:53.376Z,23.63
2019-02-14T02:24:22.152Z,22.93
2019-02-14T02:26:51.876Z,22.37
2019-02-14T02:29:20.436Z,22.90
2019-02-14T02:31:48.896Z,21.57
2019-02-14T02:34:17.706Z,23.13
2019-02-14T02:36:47.619Z,22.50
2019-02-14T02:39:16.405Z,23.47
2019-02-14T02:41:44.886Z,23.20
2019-02-14T02:44:14.658Z,22.37
2019-02-14T02:46:43.498Z,21.47
2019-02-14T02:49:15.262Z,23.53
2019-02-14T02:51:44.166Z,24.53
2019-02-14T02:54:12.922Z,24.87
2019-02-14T02:56:41.382Z,24.37
2019-02-14T02:59:09.849Z,23.77
2019-02-14T03:01:39.073Z,22.60
2019-02-14T03:04:07.959Z,24.63
2019-02-14T03:06:36.858Z,24.77
2019-02-14T03:09:06.118Z,23.97
2019-02-14T03:11:34.830Z,24.00
2019-02-14T03:14:03.684Z,21.13
2019-02-14T03:16:33.545Z,21.07
2019-02-14T03:19:02.324Z,20.00
2019-02-14T03:21:31.206Z,20.47
2019-02-14T03:23:59.720Z,21.33
2019-02-14T03:26:28.579Z,23.13
2019-02-14T03:28:57.381Z,22.77
2019-02-14T03:31:26.269Z,21.00
2019-02-14T03:33:55.058Z,22.43
2019-02-14T03:36:23.531Z,22.97
2019-02-14T03:38:52.294Z,23.47
2019-02-14T03:41:21.004Z,20.77
2019-02-14T03:43:49.765Z,19.40
2019-02-14T03:46:18.573Z,20.93
2019-02-14T03:48:47.329Z,21.50
2019-02-14T03:51:16.241Z,20.27
2019-02-14T03:53:44.687Z,21.73
2019-02-14T03:56:13.156Z,20.87
2019-02-14T03:58:41.691Z,20.43
2019-02-14T04:01:10.477Z,21.00
2019-02-14T04:03:41.313Z,20.23
2019-02-14T04:06:10.073Z,21.13
2019-02-14T04:08:38.895Z,21.63
2019-02-14T04:11:07.349Z,21.03
2019-02-14T04:13:36.640Z,20.07
2019-02-14T04:16:05.097Z,20.90
2019-02-14T04:18:33.555Z,21.43
2019-02-14T04:21:02.303Z,21.07
2019-02-14T04:23:31.073Z,21.30
2019-02-14T04:25:59.789Z,22.13
2019-02-14T04:28:28.667Z,20.33
2019-02-14T04:30:58.187Z,22.20
2019-02-14T04:33:26.703Z,20.70
2019-02-14T04:35:55.525Z,20.87
2019-02-14T04:38:25.421Z,21.70
2019-02-14T04:40:54.258Z,20.93
2019-02-14T04:43:23.033Z,21.30
2019-02-14T04:45:51.491Z,19.70
2019-02-14T04:48:20.309Z,19.07
2019-02-14T04:50:48.861Z,19.37
2019-02-14T04:53:17.646Z,19.40
2019-02-14T04:55:46.391Z,18.63
2019-02-14T04:58:14.927Z,19.50
2019-02-14T05:00:43.834Z,19.47
2019-02-14T05:03:12.633Z,18.70
2019-02-14T05:05:41.397Z,17.23
2019-02-14T05:08:10.158Z,17.97
2019-02-14T05:10:38.893Z,18.40
2019-02-14T05:13:07.610Z,17.83
2019-02-14T05:15:36.421Z,17.77
2019-02-14T05:18:05.151Z,16.30
2019-02-14T05:20:33.593Z,18.20
2019-02-14T05:23:02.475Z,16.50
2019-02-14T05:25:31.292Z,15.93
2019-02-14T05:28:02.154Z,16.63
2019-02-14T05:30:30.705Z,17.20
2019-02-14T05:32:59.182Z,16.67
2019-02-14T05:35:27.942Z,15.50
2019-02-14T05:37:56.759Z,16.87
2019-02-14T05:40:25.534Z,15.47
2019-02-14T05:42:54.330Z,15.50
2019-02-14T05:45:22.858Z,15.80
2019-02-14T05:47:51.337Z,15.10
2019-02-14T05:50:19.854Z,15.23
2019-02-14T05:52:48.292Z,14.80
2019-02-14T05:55:17.060Z,15.90
2019-02-14T05:57:48.531Z,15.50
2019-02-14T06:00:19.906Z,14.40
2019-02-14T06:02:48.738Z,14.30
2019-02-14T06:05:17.327Z,14.37
2019-02-14T06:07:45.936Z,15.73
2019-02-14T06:10:16.103Z,15.43
2019-02-14T06:12:44.547Z,16.27
2019-02-14T06:15:13.664Z,15.37
2019-02-14T06:17:42.535Z,14.90
2019-02-14T06:20:12.035Z,14.20
2019-02-14T06:22:40.552Z,14.47
2019-02-14T06:25:10.765Z,13.93
2019-02-14T06:27:39.214Z,14.70
2019-02-14T06:30:13.624Z,14.00
2019-02-14T06:32:42.076Z,14.87
2019-02-14T06:35:14.201Z,15.13
2019-02-14T06:37:43.013Z,13.97
2019-02-14T06:40:13.221Z,15.27
2019-02-14T06:42:41.992Z,14.63
2019-02-14T06:45:13.074Z,15.13
2019-02-14T06:47:41.594Z,14.93
2019-02-14T06:50:10.650Z,12.93
2019-02-14T06:52:40.407Z,15.27
2019-02-14T06:55:09.823Z,15.23
2019-02-14T06:57:38.560Z,14.07
2019-02-14T07:00:19.054Z,14.43
2019-02-14T07:02:47.858Z,14.47
2019-02-14T07:05:16.630Z,15.07
2019-02-14T07:07:45.148Z,14.60
2019-02-14T07:10:13.722Z,13.77
2019-02-14T07:12:42.490Z,14.67
2019-02-14T07:15:14.981Z,14.50
2019-02-14T07:17:44.332Z,13.83
2019-02-14T07:20:17.133Z,14.27
2019-02-14T07:22:47.769Z,17.90
2019-02-14T07:25:17.693Z,17.07
2019-02-14T07:27:46.524Z,13.60
2019-02-14T07:30:24.164Z,13.67
2019-02-14T07:32:52.946Z,12.77
2019-02-14T07:35:21.642Z,13.57
2019-02-14T07:37:50.553Z,12.33
2019-02-14T07:40:19.072Z,12.70
2019-02-14T07:42:47.801Z,12.87
2019-02-14T07:45:17.506Z,11.40
2019-02-14T07:47:47.050Z,11.30
2019-02-14T07:50:15.651Z,13.77
2019-02-14T07:52:45.761Z,13.70
2019-02-14T07:55:14.764Z,13.90
2019-02-14T07:57:43.798Z,13.87
2019-02-14T08:00:21.821Z,12.43
2019-02-14T08:02:50.574Z,12.43
2019-02-14T08:05:19.374Z,15.03
2019-02-14T08:07:48.139Z,15.17
2019-02-14T08:10:17.620Z,11.47
2019-02-14T08:12:48.248Z,10.70
2019-02-14T08:15:16.929Z,9.80
2019-02-14T08:17:45.454Z,8.77
2019-02-14T08:20:21.320Z,8.20
2019-02-14T08:22:50.126Z,8.20
2019-02-14T08:25:18.816Z,8.60
2019-02-14T08:27:48.764Z,8.78
2019-02-14T08:30:19.196Z,9.13
2019-02-14T08:32:48.022Z,8.43
2019-02-14T08:35:16.817Z,9.05
2019-02-14T08:37:46.126Z,9.43
2019-02-14T08:40:18.002Z,8.35
2019-02-14T08:42:48.770Z,7.92
2019-02-14T08:45:17.345Z,10.63
2019-02-14T08:47:47.205Z,9.78
2019-02-14T08:50:15.736Z,9.50
2019-02-14T08:52:44.560Z,9.20
2019-02-14T08:55:13.414Z,8.50
2019-02-14T08:57:42.238Z,8.28
2019-02-14T09:00:13.500Z,7.95
2019-02-14T09:02:42.126Z,7.72
2019-02-14T09:05:10.862Z,7.72
2019-02-14T09:07:39.641Z,7.53
2019-02-14T09:10:16.828Z,8.08
2019-02-14T09:12:45.731Z,8.78
2019-02-14T09:15:15.067Z,9.55
2019-02-14T09:17:44.009Z,8.30
2019-02-14T09:20:23.033Z,8.23
2019-02-14T09:22:51.485Z,7.90
2019-02-14T09:25:20.193Z,8.15
2019-02-14T09:27:49.112Z,7.83
2019-02-14T09:30:19.369Z,6.80
2019-02-14T09:32:48.499Z,7.08
2019-02-14T09:35:17.068Z,6.90
2019-02-14T09:37:45.523Z,7.53
2019-02-14T09:40:16.366Z,6.80
2019-02-14T09:42:45.300Z,6.72
2019-02-14T09:45:14.497Z,6.03
2019-02-14T09:47:42.951Z,7.12
2019-02-14T09:50:13.602Z,7.05
2019-02-14T09:52:42.604Z,6.75
2019-02-14T09:55:12.960Z,6.90
2019-02-14T09:57:41.648Z,6.17
2019-02-14T10:00:13.142Z,7.10
2019-02-14T10:02:41.682Z,6.28
2019-02-14T10:05:10.785Z,6.80
2019-02-14T10:07:39.300Z,7.12
2019-02-14T10:10:15.157Z,7.08
2019-02-14T10:12:44.039Z,7.72
2019-02-14T10:15:13.106Z,8.20
2019-02-14T10:17:42.422Z,6.85
2019-02-14T10:20:17.847Z,6.85
2019-02-14T10:22:46.745Z,5.80
2019-02-14T10:25:15.725Z,6.37
2019-02-14T10:27:44.201Z,5.65
2019-02-14T10:30:21.709Z,5.90
2019-02-14T10:32:50.272Z,5.62
2019-02-14T10:35:21.086Z,5.87
2019-02-14T10:37:50.546Z,7.20
2019-02-14T10:40:19.036Z,6.55
2019-02-14T10:42:47.739Z,6.67
2019-02-14T10:45:20.712Z,6.75
2019-02-14T10:47:49.477Z,6.35
2019-02-14T10:50:18.346Z,5.97
2019-02-14T10:52:47.085Z,10.95
2019-02-14T10:55:15.981Z,6.10
2019-02-14T10:57:44.498Z,5.45
2019-02-14T11:00:24.757Z,5.47
2019-02-14T11:02:53.545Z,5.92
2019-02-14T11:05:22.153Z,5.17
2019-02-14T11:07:50.688Z,6.28
2019-02-14T11:10:20.529Z,5.75
2019-02-14T11:12:49.064Z,5.35
2019-02-14T11:15:20.263Z,4.72
2019-02-14T11:17:49.283Z,5.17
2019-02-14T11:20:18.433Z,4.80
2019-02-14T11:22:49.081Z,5.25
2019-02-14T11:25:23.903Z,5.20
2019-02-14T11:27:52.781Z,5.05
2019-02-14T11:30:21.592Z,5.58
2019-02-14T11:32:51.562Z,5.33
2019-02-14T11:35:20.133Z,6.37
2019-02-14T11:37:48.594Z,5.87
2019-02-14T11:40:17.101Z,5.70
2019-02-14T11:42:45.919Z,6.03
2019-02-14T11:45:25.146Z,5.92
2019-02-14T11:47:53.944Z,5.85
2019-02-14T11:50:22.743Z,5.50
2019-02-14T11:52:51.604Z,5.62
2019-02-14T11:55:20.090Z,5.50
2019-02-14T11:57:50.244Z,5.72
2019-02-14T12:00:24.687Z,6.53
2019-02-14T12:02:55.906Z,6.00
2019-02-14T12:05:24.095Z,5.65
2019-02-14T12:07:52.625Z,5.90
2019-02-14T12:10:21.211Z,5.95
2019-02-14T12:12:51.334Z,5.40
2019-02-14T12:15:19.835Z,5.65
2019-02-14T12:17:48.721Z,4.60
2019-02-14T12:20:17.168Z,5.05
2019-02-14T12:22:47.028Z,4.50
2019-02-14T12:25:21.644Z,3.37
2019-02-14T12:27:51.588Z,3.80
2019-02-14T12:30:20.413Z,4.75
2019-02-14T12:32:50.710Z,4.40
2019-02-14T12:35:19.512Z,4.33
2019-02-14T12:37:47.972Z,5.30
2019-02-14T12:40:18.854Z,4.40
2019-02-14T12:42:47.636Z,4.45
2019-02-14T12:45:21.487Z,3.10
2019-02-14T12:47:49.321Z,4.35
2019-02-14T12:50:17.878Z,3.90
2019-02-14T12:52:46.668Z,5.58
2019-02-14T12:55:15.136Z,3.62
2019-02-14T12:57:44.078Z,3.75
2019-02-14T13:00:18.021Z,2.42
2019-02-14T13:02:46.720Z,5.17
2019-02-14T13:05:15.428Z,4.70
2019-02-14T13:07:44.210Z,3.55
2019-02-14T13:10:18.999Z,3.05
2019-02-14T13:12:47.757Z,3.33
2019-02-14T13:15:21.654Z,3.33
2019-02-14T13:17:50.426Z,3.47
2019-02-14T13:20:18.974Z,3.05
2019-02-14T13:22:47.434Z,3.50
2019-02-14T13:25:16.661Z,3.05
2019-02-14T13:27:45.236Z,2.95
2019-02-14T13:30:16.695Z,3.98
2019-02-14T13:32:45.607Z,3.92
2019-02-14T13:35:14.394Z,4.35
2019-02-14T13:37:44.709Z,4.42
2019-02-14T13:40:13.595Z,4.45
2019-02-14T13:42:42.405Z,4.05
2019-02-14T13:45:24.440Z,5.33
2019-02-14T13:47:53.272Z,5.10
2019-02-14T13:50:23.153Z,4.60
2019-02-14T13:52:51.887Z,4.00
2019-02-14T13:55:20.818Z,4.28
2019-02-14T13:57:49.352Z,4.25
2019-02-14T14:00:20.829Z,4.33
2019-02-14T14:02:49.573Z,4.50
2019-02-14T14:05:18.659Z,4.65
2019-02-14T14:07:47.223Z,5.37
2019-02-14T14:10:16.813Z,4.83
2019-02-14T14:12:45.264Z,4.78
2019-02-14T14:15:14.520Z,5.15
2019-02-14T14:17:43.574Z,3.95
2019-02-14T14:20:12.215Z,4.47
2019-02-14T14:22:41.085Z,4.80
2019-02-14T14:25:11.533Z,3.58
2019-02-14T14:27:40.556Z,3.90
2019-02-14T14:30:11.330Z,4.03
2019-02-14T14:32:39.844Z,3.75
2019-02-14T14:35:11.080Z,5.83
2019-02-14T14:37:40.357Z,4.10
2019-02-14T14:40:11.490Z,3.65
2019-02-14T14:42:53.761Z,3.62
2019-02-14T14:45:39.110Z,6.30
2019-02-14T14:48:09.292Z,3.87
2019-02-14T14:50:37.753Z,3.17
2019-02-14T14:53:07.534Z,3.15
2019-02-14T14:55:36.212Z,3.62
2019-02-14T14:58:06.401Z,3.17
2019-02-14T15:00:35.397Z,3.85
2019-02-14T15:03:03.879Z,3.77
2019-02-14T15:05:32.395Z,3.87
2019-02-14T15:08:01.116Z,3.80
2019-02-14T15:10:30.101Z,3.02
2019-02-14T15:12:58.594Z,3.72
2019-02-14T15:15:27.485Z,3.20
2019-02-14T15:17:56.010Z,3.10
2019-02-14T15:20:24.484Z,4.15
2019-02-14T15:22:53.434Z,3.83
2019-02-14T15:25:21.960Z,4.15
2019-02-14T15:27:50.405Z,4.55
2019-02-14T15:30:19.132Z,3.72
2019-02-14T15:32:48.078Z,3.85
2019-02-14T15:35:18.289Z,4.25
2019-02-14T15:37:47.241Z,4.00
2019-02-14T15:40:16.069Z,3.72
2019-02-14T15:42:44.576Z,4.05
2019-02-14T15:45:14.685Z,3.75
2019-02-14T15:47:43.222Z,4.45
2019-02-14T15:50:11.745Z,3.20
2019-02-14T15:52:40.220Z,3.35
2019-02-14T15:55:08.814Z,3.25
2019-02-14T15:57:37.587Z,3.30
2019-02-14T16:00:10.662Z,3.33
2019-02-14T16:02:39.779Z,3.37
2019-02-14T16:05:09.766Z,3.95
2019-02-14T16:07:39.537Z,4.25
2019-02-14T16:10:18.075Z,4.90
2019-02-14T16:12:41.338Z,4.20
2019-02-14T16:15:10.830Z,4.53
2019-02-14T16:17:39.348Z,4.05
2019-02-14T16:20:09.309Z,5.72
2019-02-14T16:22:41.819Z,4.70
2019-02-14T16:25:10.179Z,4.85
2019-02-14T16:27:38.624Z,4.35
2019-02-14T16:30:10.791Z,4.47
2019-02-14T16:32:40.677Z,4.30
2019-02-14T16:35:09.279Z,3.92
2019-02-14T16:37:38.150Z,4.17
2019-02-14T16:40:09.291Z,6.00
2019-02-14T16:42:37.808Z,4.42
2019-02-14T16:45:08.296Z,4.67
2019-02-14T16:47:37.182Z,4.62
2019-02-14T16:50:08.580Z,4.45
2019-02-14T16:52:37.304Z,3.80
2019-02-14T16:55:07.556Z,4.50
2019-02-14T16:57:39.079Z,3.58
2019-02-14T17:03:36.789Z,4.33
2019-02-14T17:06:05.308Z,4.15
2019-02-14T17:08:33.782Z,4.35
2019-02-14T17:11:02.317Z,4.40
2019-02-14T17:13:31.100Z,4.97
2019-02-14T17:15:59.902Z,5.62
2019-02-14T17:18:29.730Z,4.87
2019-02-14T17:20:58.590Z,5.65
2019-02-14T17:23:28.307Z,5.25
2019-02-14T17:25:58.078Z,5.47
2019-02-14T17:28:27.177Z,5.35
2019-02-14T17:30:56.015Z,5.05
2019-02-14T17:33:24.566Z,5.10
2019-02-14T17:35:53.412Z,5.58
2019-02-14T17:38:24.499Z,4.95
2019-02-14T17:40:53.018Z,5.37
2019-02-14T17:43:21.566Z,5.30
2019-02-14T17:45:50.070Z,5.65
2019-02-14T17:48:18.621Z,6.60
2019-02-14T17:50:47.511Z,6.65
2019-02-14T17:53:16.204Z,6.53
2019-02-14T17:55:45.005Z,7.53
2019-02-14T17:58:13.772Z,7.85
2019-02-14T18:00:54.413Z,7.00
2019-02-14T18:03:22.872Z,8.83
2019-02-14T18:05:51.339Z,7.90
2019-02-14T18:08:20.422Z,6.90
2019-02-14T18:10:54.772Z,6.83
2019-02-14T18:13:20.774Z,7.50
2019-02-14T18:15:49.496Z,7.58
2019-02-14T18:18:18.326Z,7.90
2019-02-14T18:20:48.291Z,10.08
2019-02-14T18:23:17.028Z,9.38
2019-02-14T18:25:45.578Z,8.20
2019-02-14T18:28:14.613Z,8.63
2019-02-14T18:30:43.376Z,8.43
2019-02-14T18:33:11.987Z,7.85
2019-02-14T18:35:40.434Z,8.08
2019-02-14T18:38:09.226Z,7.70
2019-02-14T18:40:37.993Z,8.23
2019-02-14T18:43:06.513Z,8.48
2019-02-14T18:45:35.025Z,8.78
2019-02-14T18:48:03.527Z,8.30
2019-02-14T18:50:32.331Z,9.35
2019-02-14T18:53:01.116Z,7.45
2019-02-14T18:55:29.627Z,7.50
2019-02-14T18:57:58.140Z,7.70
2019-02-14T19:00:26.581Z,8.55
2019-02-14T19:02:55.334Z,8.75
2019-02-14T19:05:23.789Z,7.87
2019-02-14T19:07:52.281Z,8.53
2019-02-14T19:10:20.854Z,8.10
2019-02-14T19:12:49.361Z,8.75
2019-02-14T19:15:18.197Z,9.20
2019-02-14T19:17:46.740Z,9.40
2019-02-14T19:20:15.257Z,9.40
2019-02-14T19:22:43.725Z,9.40
2019-02-14T19:25:12.612Z,9.53
2019-02-14T19:27:41.382Z,9.28
2019-02-14T19:30:11.200Z,8.50
2019-02-14T19:32:39.715Z,9.83
2019-02-14T19:35:09.743Z,10.23
2019-02-14T19:37:38.359Z,11.22
2019-02-14T19:40:08.811Z,12.07
2019-02-14T19:42:37.746Z,11.25
2019-02-14T19:45:11.696Z,11.75
2019-02-14T19:47:40.249Z,10.80
2019-02-14T19:50:10.820Z,10.58
2019-02-14T19:52:40.247Z,9.93
2019-02-14T19:55:09.561Z,10.75
2019-02-14T19:57:38.009Z,11.00
2019-02-14T20:00:11.907Z,10.32
2019-02-14T20:02:40.532Z,10.65
2019-02-14T20:05:09.919Z,10.03
2019-02-14T20:07:38.633Z,11.15
2019-02-14T20:10:15.248Z,10.60
2019-02-14T20:12:43.697Z,9.33
2019-02-14T20:15:17.624Z,9.55
2019-02-14T20:17:46.103Z,9.23
2019-02-14T20:20:15.014Z,9.93
2019-02-14T20:22:44.711Z,9.10
2019-02-14T20:25:16.689Z,9.33
2019-02-14T20:27:45.440Z,9.53
2019-02-14T20:30:13.911Z,8.58
2019-02-14T20:32:42.458Z,8.58
2019-02-14T20:35:11.046Z,8.30
2019-02-14T20:37:41.412Z,8.08
2019-02-14T20:40:11.018Z,7.87
2019-02-14T20:42:39.796Z,7.47
2019-02-14T20:45:13.687Z,8.25
2019-02-14T20:47:42.245Z,9.15
2019-02-14T20:50:16.635Z,8.05
2019-02-14T20:52:45.664Z,7.42
2019-02-14T20:55:17.127Z,7.28
2019-02-14T20:57:45.934Z,8.23
2019-02-14T21:00:17.202Z,9.13
2019-02-14T21:02:45.977Z,8.73
2019-02-14T21:05:14.743Z,7.43
2019-02-14T21:07:43.222Z,8.53
2019-02-14T21:10:12.149Z,8.00
2019-02-14T21:12:41.003Z,8.00
2019-02-14T21:15:09.840Z,9.63
2019-02-14T21:17:42.346Z,8.98
2019-02-14T21:20:15.055Z,9.68
2019-02-14T21:22:43.646Z,8.63
2019-02-14T21:25:12.622Z,9.48
2019-02-14T21:27:41.358Z,10.45
2019-02-14T21:30:13.138Z,9.15
2019-02-14T21:32:41.814Z,8.90
2019-02-14T21:35:10.780Z,9.65
2019-02-14T21:37:39.402Z,9.23
2019-02-14T21:40:13.488Z,8.63
2019-02-14T21:42:41.955Z,9.28
2019-02-14T21:45:15.299Z,9.73
2019-02-14T21:47:43.783Z,10.00
2019-02-14T21:50:15.555Z,8.78
2019-02-14T21:52:45.517Z,7.50
2019-02-14T21:55:15.325Z,8.63
2019-02-14T21:57:44.061Z,9.87
2019-02-14T22:00:27.345Z,10.30
2019-02-14T22:02:55.858Z,8.83
2019-02-14T22:05:26.137Z,9.58
2019-02-14T22:07:56.436Z,8.90
2019-02-14T22:10:25.037Z,9.07
2019-02-14T22:12:53.557Z,8.87
2019-02-14T22:15:27.317Z,9.27
2019-02-14T22:17:57.364Z,9.00
2019-02-14T22:20:25.847Z,8.70
2019-02-14T22:22:54.394Z,9.80
2019-02-14T22:25:22.920Z,12.30
2019-02-14T22:27:51.856Z,12.37
2019-02-14T22:30:21.306Z,12.80
2019-02-14T22:32:50.210Z,12.43
2019-02-14T22:35:19.001Z,14.63
2019-02-14T22:37:47.471Z,17.37
2019-02-14T22:40:17.468Z,14.87
2019-02-14T22:42:47.919Z,15.60
2019-02-14T22:45:16.825Z,12.67
2019-02-14T22:47:45.609Z,14.63
2019-02-14T22:50:14.490Z,14.93
2019-02-14T22:52:43.226Z,13.53
2019-02-14T22:55:13.923Z,11.77
2019-02-14T22:57:42.476Z,10.50
2019-02-14T23:00:32.539Z,11.03
2019-02-14T23:03:02.631Z,11.63
2019-02-14T23:05:31.419Z,10.17
2019-02-14T23:08:10.614Z,11.10
2019-02-14T23:10:39.617Z,10.25
2019-02-14T23:13:09.923Z,11.83
2019-02-14T23:15:38.710Z,10.07
2019-02-14T23:18:07.624Z,11.67
2019-02-14T23:20:36.193Z,10.20
2019-02-14T23:23:04.969Z,10.53
2019-02-14T23:25:33.692Z,10.30
2019-02-14T23:28:02.143Z,9.63
2019-02-14T23:30:30.964Z,13.10
2019-02-14T23:32:59.813Z,10.73
2019-02-14T23:35:29.454Z,11.27
2019-02-14T23:37:59.300Z,10.33
2019-02-14T23:40:28.085Z,9.93
2019-02-14T23:43:04.458Z,10.13
2019-02-14T23:45:27.136Z,10.30
2019-02-14T23:47:55.638Z,11.13
2019-02-14T23:50:24.388Z,9.90
2019-02-14T23:52:53.176Z,9.20
2019-02-14T23:55:21.956Z,9.63
2019-02-14T23:57:50.824Z,9.53
